sensor_id;sensor_type;location;lat;lon;timestamp;pressure;altitude;pressure_sealevel;temperature;humidity
21828;BME280;11076;47.942;11.804;2023-10-13T00:04:42;94492.88;;;24.66;31.60
21828;BME280;11076;47.942;11.804;2023-10-13T00:09:45;94495.19;;;24.59;31.96
21828;BME280;11076;47.942;11.804;2023-10-13T00:14:47;94487.50;;;24.61;31.62
21828;BME280;11076;47.942;11.804;2023-10-13T00:19:53;94486.16;;;25.00;30.79
21828;BME280;11076;47.942;11.804;2023-10-13T00:24:55;94493.19;;;25.29;30.18
21828;BME280;11076;47.942;11.804;2023-10-13T00:30:04;94482.19;;;25.06;30.17
21828;BME280;11076;47.942;11.804;2023-10-13T00:35:35;94475.09;;;25.05;30.05
21828;BME280;11076;47.942;11.804;2023-10-13T00:40:40;94474.47;;;24.72;30.40
21828;BME280;11076;47.942;11.804;2023-10-13T00:45:47;94480.13;;;24.75;30.49
21828;BME280;11076;47.942;11.804;2023-10-13T00:50:58;94477.84;;;25.05;30.39
21828;BME280;11076;47.942;11.804;2023-10-13T00:56:05;94484.88;;;25.34;29.74
21828;BME280;11076;47.942;11.804;2023-10-13T01:01:20;94483.75;;;25.57;29.82
21828;BME280;11076;47.942;11.804;2023-10-13T01:06:35;94485.88;;;25.60;29.78
21828;BME280;11076;47.942;11.804;2023-10-13T01:11:41;94486.63;;;25.75;29.25
21828;BME280;11076;47.942;11.804;2023-10-13T01:16:48;94481.63;;;25.77;29.39
21828;BME280;11076;47.942;11.804;2023-10-13T01:21:55;94480.19;;;25.79;28.96
21828;BME280;11076;47.942;11.804;2023-10-13T01:27:06;94470.75;;;25.63;28.99
21828;BME280;11076;47.942;11.804;2023-10-13T01:32:23;94476.66;;;25.56;28.91
21828;BME280;11076;47.942;11.804;2023-10-13T01:37:26;94467.31;;;24.98;29.51
21828;BME280;11076;47.942;11.804;2023-10-13T01:42:28;94468.19;;;24.30;30.31
21828;BME280;11076;47.942;11.804;2023-10-13T01:47:32;94473.97;;;23.49;31.54
21828;BME280;11076;47.942;11.804;2023-10-13T01:52:38;94480.16;;;23.54;31.68
21828;BME280;11076;47.942;11.804;2023-10-13T01:57:40;94467.78;;;23.76;31.41
21828;BME280;11076;47.942;11.804;2023-10-13T02:02:49;94470.09;;;24.01;30.77
21828;BME280;11076;47.942;11.804;2023-10-13T02:07:53;94465.50;;;23.83;31.35
21828;BME280;11076;47.942;11.804;2023-10-13T02:12:56;94465.06;;;23.76;31.44
21828;BME280;11076;47.942;11.804;2023-10-13T02:17:58;94465.66;;;23.73;31.71
21828;BME280;11076;47.942;11.804;2023-10-13T02:23:02;94465.66;;;23.40;32.34
21828;BME280;11076;47.942;11.804;2023-10-13T02:28:12;94464.69;;;23.50;32.18
21828;BME280;11076;47.942;11.804;2023-10-13T02:33:23;94465.25;;;23.66;31.76
21828;BME280;11076;47.942;11.804;2023-10-13T02:38:32;94472.97;;;23.26;32.58
21828;BME280;11076;47.942;11.804;2023-10-13T02:43:48;94471.44;;;22.38;33.69
21828;BME280;11076;47.942;11.804;2023-10-13T02:48:51;94466.78;;;22.39;33.63
21828;BME280;11076;47.942;11.804;2023-10-13T02:53:56;94464.22;;;22.48;33.53
21828;BME280;11076;47.942;11.804;2023-10-13T02:59:05;94466.53;;;22.11;34.03
21828;BME280;11076;47.942;11.804;2023-10-13T03:04:07;94453.56;;;22.27;33.94
21828;BME280;11076;47.942;11.804;2023-10-13T03:09:15;94465.84;;;22.00;34.30
21828;BME280;11076;47.942;11.804;2023-10-13T03:14:22;94472.00;;;21.82;34.69
21828;BME280;11076;47.942;11.804;2023-10-13T03:19:34;94469.91;;;21.39;35.56
21828;BME280;11076;47.942;11.804;2023-10-13T03:24:38;94468.66;;;21.61;35.25
21828;BME280;11076;47.942;11.804;2023-10-13T03:29:47;94467.03;;;21.89;34.90
21828;BME280;11076;47.942;11.804;2023-10-13T03:34:50;94472.59;;;21.79;35.39
21828;BME280;11076;47.942;11.804;2023-10-13T03:39:56;94471.28;;;22.00;36.39
21828;BME280;11076;47.942;11.804;2023-10-13T03:45:01;94473.44;;;21.98;35.58
21828;BME280;11076;47.942;11.804;2023-10-13T03:50:05;94470.72;;;21.98;35.37
21828;BME280;11076;47.942;11.804;2023-10-13T03:55:31;94471.81;;;21.39;36.02
21828;BME280;11076;47.942;11.804;2023-10-13T04:00:37;94468.56;;;21.71;35.61
21828;BME280;11076;47.942;11.804;2023-10-13T04:05:40;94468.84;;;21.70;35.63
21828;BME280;11076;47.942;11.804;2023-10-13T04:10:44;94463.91;;;21.77;35.27
21828;BME280;11076;47.942;11.804;2023-10-13T04:15:47;94463.38;;;21.75;35.29
21828;BME280;11076;47.942;11.804;2023-10-13T04:21:25;94462.03;;;21.43;35.70
21828;BME280;11076;47.942;11.804;2023-10-13T04:26:51;94461.34;;;21.56;35.70
21828;BME280;11076;47.942;11.804;2023-10-13T04:32:12;94460.00;;;21.19;36.56
21828;BME280;11076;47.942;11.804;2023-10-13T04:37:30;94457.91;;;21.11;36.71
21828;BME280;11076;47.942;11.804;2023-10-13T04:42:35;94452.91;;;21.23;36.64
21828;BME280;11076;47.942;11.804;2023-10-13T04:48:00;94448.09;;;21.15;36.83
21828;BME280;11076;47.942;11.804;2023-10-13T04:53:35;94441.59;;;21.11;36.83
21828;BME280;11076;47.942;11.804;2023-10-13T04:58:57;94442.41;;;21.06;36.90
21828;BME280;11076;47.942;11.804;2023-10-13T05:04:18;94444.09;;;21.02;37.07
21828;BME280;11076;47.942;11.804;2023-10-13T05:09:21;94440.53;;;21.07;37.03
21828;BME280;11076;47.942;11.804;2023-10-13T05:14:42;94445.44;;;21.39;36.32
21828;BME280;11076;47.942;11.804;2023-10-13T05:20:04;94440.19;;;21.14;36.56
21828;BME280;11076;47.942;11.804;2023-10-13T05:25:24;94437.88;;;20.97;36.96
21828;BME280;11076;47.942;11.804;2023-10-13T05:30:46;94437.81;;;21.07;36.79
21828;BME280;11076;47.942;11.804;2023-10-13T05:36:11;94445.13;;;20.67;37.52
21828;BME280;11076;47.942;11.804;2023-10-13T05:41:32;94443.03;;;19.73;39.27
21828;BME280;11076;47.942;11.804;2023-10-13T05:46:53;94446.81;;;19.88;39.00
21828;BME280;11076;47.942;11.804;2023-10-13T05:52:14;94455.59;;;20.34;38.17
21828;BME280;11076;47.942;11.804;2023-10-13T05:57:42;94455.53;;;20.50;37.91
21828;BME280;11076;47.942;11.804;2023-10-13T06:03:04;94459.81;;;20.66;37.73
21828;BME280;11076;47.942;11.804;2023-10-13T06:08:25;94457.63;;;20.73;37.81
21828;BME280;11076;47.942;11.804;2023-10-13T06:13:47;94466.44;;;20.94;37.72
21828;BME280;11076;47.942;11.804;2023-10-13T06:19:08;94472.63;;;21.05;37.62
21828;BME280;11076;47.942;11.804;2023-10-13T06:24:29;94466.81;;;21.17;37.83
21828;BME280;11076;47.942;11.804;2023-10-13T06:29:51;94466.53;;;21.18;38.25
21828;BME280;11076;47.942;11.804;2023-10-13T06:34:56;94462.13;;;21.91;37.48
21828;BME280;11076;47.942;11.804;2023-10-13T06:40:01;94463.34;;;22.28;37.33
21828;BME280;11076;47.942;11.804;2023-10-13T06:45:24;94460.72;;;22.42;37.64
21828;BME280;11076;47.942;11.804;2023-10-13T06:50:30;94463.38;;;22.71;37.52
21828;BME280;11076;47.942;11.804;2023-10-13T06:55:41;94460.94;;;22.89;38.35
21828;BME280;11076;47.942;11.804;2023-10-13T07:00:49;94461.63;;;23.18;38.06
21828;BME280;11076;47.942;11.804;2023-10-13T07:05:55;94466.75;;;23.39;38.17
21828;BME280;11076;47.942;11.804;2023-10-13T07:11:01;94466.44;;;23.73;38.43
21828;BME280;11076;47.942;11.804;2023-10-13T07:16:07;94478.28;;;24.01;38.14
21828;BME280;11076;47.942;11.804;2023-10-13T07:21:18;94479.81;;;24.08;38.51
21828;BME280;11076;47.942;11.804;2023-10-13T07:26:34;94464.75;;;24.52;38.40
21828;BME280;11076;47.942;11.804;2023-10-13T07:31:36;94470.22;;;24.52;38.71
21828;BME280;11076;47.942;11.804;2023-10-13T07:36:40;94462.53;;;24.54;38.72
21828;BME280;11076;47.942;11.804;2023-10-13T07:41:46;94469.06;;;24.80;37.52
21828;BME280;11076;47.942;11.804;2023-10-13T07:46:53;94459.13;;;24.85;37.73
21828;BME280;11076;47.942;11.804;2023-10-13T07:52:05;94464.22;;;25.28;37.30
21828;BME280;11076;47.942;11.804;2023-10-13T07:57:31;94461.31;;;25.47;37.14
21828;BME280;11076;47.942;11.804;2023-10-13T08:02:34;94460.66;;;25.95;37.02
21828;BME280;11076;47.942;11.804;2023-10-13T08:07:52;94460.28;;;26.19;36.35
21828;BME280;11076;47.942;11.804;2023-10-13T08:12:55;94462.38;;;26.22;36.52
21828;BME280;11076;47.942;11.804;2023-10-13T08:17:59;94451.78;;;26.69;35.94
21828;BME280;11076;47.942;11.804;2023-10-13T08:23:09;94454.91;;;26.94;36.24
21828;BME280;11076;47.942;11.804;2023-10-13T08:28:22;94452.69;;;27.31;35.23
21828;BME280;11076;47.942;11.804;2023-10-13T08:33:52;94447.66;;;27.59;34.68
21828;BME280;11076;47.942;11.804;2023-10-13T08:39:07;94445.06;;;27.45;34.37
21828;BME280;11076;47.942;11.804;2023-10-13T08:44:30;94443.13;;;27.72;34.61
21828;BME280;11076;47.942;11.804;2023-10-13T08:49:40;94440.38;;;27.72;34.24
21828;BME280;11076;47.942;11.804;2023-10-13T08:54:44;94434.47;;;28.08;34.11
21828;BME280;11076;47.942;11.804;2023-10-13T08:59:52;94434.13;;;28.48;33.62
21828;BME280;11076;47.942;11.804;2023-10-13T09:04:57;94435.81;;;28.70;33.27
21828;BME280;11076;47.942;11.804;2023-10-13T09:10:22;94437.44;;;29.22;32.50
21828;BME280;11076;47.942;11.804;2023-10-13T09:15:35;94431.13;;;29.22;32.78
21828;BME280;11076;47.942;11.804;2023-10-13T09:21:09;94424.16;;;29.24;33.07
21828;BME280;11076;47.942;11.804;2023-10-13T09:26:35;94422.28;;;29.37;32.41
21828;BME280;11076;47.942;11.804;2023-10-13T09:31:38;94421.53;;;29.82;31.50
21828;BME280;11076;47.942;11.804;2023-10-13T09:36:41;94423.63;;;29.98;30.64
21828;BME280;11076;47.942;11.804;2023-10-13T09:41:43;94413.31;;;29.94;30.38
21828;BME280;11076;47.942;11.804;2023-10-13T09:46:46;94413.66;;;30.05;29.64
21828;BME280;11076;47.942;11.804;2023-10-13T09:51:49;94405.34;;;30.39;29.50
21828;BME280;11076;47.942;11.804;2023-10-13T09:57:05;94405.56;;;30.33;29.55
21828;BME280;11076;47.942;11.804;2023-10-13T10:02:12;94395.44;;;30.38;29.25
21828;BME280;11076;47.942;11.804;2023-10-13T10:07:27;94390.31;;;31.13;28.75
21828;BME280;11076;47.942;11.804;2023-10-13T10:17:42;94391.63;;;31.04;28.45
21828;BME280;11076;47.942;11.804;2023-10-13T10:23:05;94391.44;;;30.72;28.34
21828;BME280;11076;47.942;11.804;2023-10-13T10:28:11;94387.63;;;30.52;28.43
21828;BME280;11076;47.942;11.804;2023-10-13T10:33:18;94374.69;;;31.05;28.27
21828;BME280;11076;47.942;11.804;2023-10-13T10:38:23;94368.81;;;31.91;28.06
21828;BME280;11076;47.942;11.804;2023-10-13T10:43:36;94364.75;;;31.57;28.56
21828;BME280;11076;47.942;11.804;2023-10-13T10:48:45;94355.81;;;31.48;29.29
21828;BME280;11076;47.942;11.804;2023-10-13T10:53:52;94346.94;;;31.70;29.46
21828;BME280;11076;47.942;11.804;2023-10-13T10:58:57;94342.38;;;32.06;29.46
21828;BME280;11076;47.942;11.804;2023-10-13T11:04:01;94336.03;;;32.06;29.54
21828;BME280;11076;47.942;11.804;2023-10-13T11:09:11;94329.13;;;31.68;29.30
21828;BME280;11076;47.942;11.804;2023-10-13T11:14:29;94325.28;;;31.88;29.51
21828;BME280;11076;47.942;11.804;2023-10-13T11:19:36;94323.53;;;32.12;28.96
21828;BME280;11076;47.942;11.804;2023-10-13T11:24:42;94307.13;;;31.87;29.33
21828;BME280;11076;47.942;11.804;2023-10-13T11:29:45;94302.41;;;32.20;29.32
21828;BME280;11076;47.942;11.804;2023-10-13T11:34:54;94304.97;;;31.97;29.74
21828;BME280;11076;47.942;11.804;2023-10-13T11:39:57;94297.84;;;32.27;29.17
21828;BME280;11076;47.942;11.804;2023-10-13T11:44:59;94285.91;;;32.59;28.35
21828;BME280;11076;47.942;11.804;2023-10-13T11:50:25;94284.72;;;32.95;28.46
21828;BME280;11076;47.942;11.804;2023-10-13T11:55:37;94278.13;;;33.19;27.94
21828;BME280;11076;47.942;11.804;2023-10-13T12:00:40;94265.53;;;33.45;27.84
21828;BME280;11076;47.942;11.804;2023-10-13T12:06:03;94256.75;;;32.61;28.57
21828;BME280;11076;47.942;11.804;2023-10-13T12:11:24;94254.19;;;32.72;28.13
21828;BME280;11076;47.942;11.804;2023-10-13T12:16:33;94250.72;;;32.75;28.17
21828;BME280;11076;47.942;11.804;2023-10-13T12:21:37;94235.84;;;32.83;28.03
21828;BME280;11076;47.942;11.804;2023-10-13T12:26:40;94228.19;;;32.77;28.14
21828;BME280;11076;47.942;11.804;2023-10-13T12:31:45;94226.59;;;32.95;27.84
21828;BME280;11076;47.942;11.804;2023-10-13T12:36:54;94214.53;;;32.48;27.82
21828;BME280;11076;47.942;11.804;2023-10-13T12:42:08;94209.31;;;32.43;28.04
21828;BME280;11076;47.942;11.804;2023-10-13T12:47:29;94201.88;;;32.47;27.06
21828;BME280;11076;47.942;11.804;2023-10-13T12:52:50;94192.03;;;32.30;27.53
21828;BME280;11076;47.942;11.804;2023-10-13T12:57:52;94189.22;;;32.85;27.05
21828;BME280;11076;47.942;11.804;2023-10-13T13:02:55;94175.84;;;32.68;27.48
21828;BME280;11076;47.942;11.804;2023-10-13T13:07:58;94176.94;;;32.83;27.15
21828;BME280;11076;47.942;11.804;2023-10-13T13:13:02;94157.69;;;32.70;27.14
21828;BME280;11076;47.942;11.804;2023-10-13T13:18:05;94159.81;;;32.77;27.39
21828;BME280;11076;47.942;11.804;2023-10-13T13:23:14;94150.56;;;32.89;27.45
21828;BME280;11076;47.942;11.804;2023-10-13T13:28:18;94147.19;;;33.22;26.95
21828;BME280;11076;47.942;11.804;2023-10-13T13:33:20;94138.47;;;32.39;27.88
21828;BME280;11076;47.942;11.804;2023-10-13T13:38:28;94129.47;;;32.61;28.16
21828;BME280;11076;47.942;11.804;2023-10-13T13:43:34;94123.06;;;33.00;27.25
21828;BME280;11076;47.942;11.804;2023-10-13T13:48:51;94127.72;;;32.96;26.33
21828;BME280;11076;47.942;11.804;2023-10-13T13:54:02;94119.44;;;32.96;26.17
21828;BME280;11076;47.942;11.804;2023-10-13T13:59:08;94119.34;;;32.92;25.70
21828;BME280;11076;47.942;11.804;2023-10-13T14:04:11;94106.41;;;32.77;25.73
21828;BME280;11076;47.942;11.804;2023-10-13T14:09:16;94100.16;;;32.80;25.70
21828;BME280;11076;47.942;11.804;2023-10-13T14:14:34;94096.09;;;32.35;25.15
21828;BME280;11076;47.942;11.804;2023-10-13T14:19:37;94083.16;;;32.58;25.81
21828;BME280;11076;47.942;11.804;2023-10-13T14:24:43;94088.47;;;32.67;25.73
21828;BME280;11076;47.942;11.804;2023-10-13T14:29:46;94076.88;;;32.03;25.45
21828;BME280;11076;47.942;11.804;2023-10-13T14:34:49;94081.72;;;32.06;26.05
21828;BME280;11076;47.942;11.804;2023-10-13T14:40:02;94069.88;;;31.89;27.15
21828;BME280;11076;47.942;11.804;2023-10-13T14:45:05;94065.41;;;31.65;26.80
21828;BME280;11076;47.942;11.804;2023-10-13T14:50:14;94068.09;;;31.62;26.45
21828;BME280;11076;47.942;11.804;2023-10-13T14:55:21;94054.78;;;31.32;26.17
21828;BME280;11076;47.942;11.804;2023-10-13T15:00:35;94047.94;;;31.10;27.20
21828;BME280;11076;47.942;11.804;2023-10-13T15:05:40;94040.72;;;31.05;27.79
21828;BME280;11076;47.942;11.804;2023-10-13T15:10:45;94040.22;;;30.56;29.13
21828;BME280;11076;47.942;11.804;2023-10-13T15:15:48;94042.13;;;30.67;29.52
21828;BME280;11076;47.942;11.804;2023-10-13T15:20:50;94039.72;;;29.93;30.85
21828;BME280;11076;47.942;11.804;2023-10-13T15:25:53;94034.34;;;30.13;31.11
21828;BME280;11076;47.942;11.804;2023-10-13T15:30:55;94028.03;;;30.12;30.65
21828;BME280;11076;47.942;11.804;2023-10-13T15:36:07;94025.69;;;29.99;30.87
21828;BME280;11076;47.942;11.804;2023-10-13T15:41:09;94023.28;;;29.57;31.89
21828;BME280;11076;47.942;11.804;2023-10-13T15:46:16;94012.34;;;29.60;32.11
21828;BME280;11076;47.942;11.804;2023-10-13T15:51:38;94003.47;;;29.02;32.66
21828;BME280;11076;47.942;11.804;2023-10-13T16:01:45;94001.72;;;27.81;34.75
21828;BME280;11076;47.942;11.804;2023-10-13T16:06:50;93987.38;;;27.42;35.22
21828;BME280;11076;47.942;11.804;2023-10-13T16:11:53;93996.41;;;26.92;36.16
21828;BME280;11076;47.942;11.804;2023-10-13T16:16:56;94003.94;;;26.65;36.57
21828;BME280;11076;47.942;11.804;2023-10-13T16:21:59;93990.84;;;26.32;36.69
21828;BME280;11076;47.942;11.804;2023-10-13T16:27:02;93997.28;;;26.36;36.73
21828;BME280;11076;47.942;11.804;2023-10-13T16:32:07;94007.81;;;26.17;37.66
21828;BME280;11076;47.942;11.804;2023-10-13T16:37:11;94009.91;;;26.11;37.47
21828;BME280;11076;47.942;11.804;2023-10-13T16:42:13;94013.00;;;25.92;37.50
21828;BME280;11076;47.942;11.804;2023-10-13T16:47:16;94013.66;;;25.54;38.16
21828;BME280;11076;47.942;11.804;2023-10-13T16:52:19;94000.94;;;25.50;38.51
21828;BME280;11076;47.942;11.804;2023-10-13T16:57:21;93997.19;;;25.11;39.08
21828;BME280;11076;47.942;11.804;2023-10-13T17:02:24;94004.16;;;24.68;39.92
21828;BME280;11076;47.942;11.804;2023-10-13T17:07:27;93997.44;;;24.74;39.64
21828;BME280;11076;47.942;11.804;2023-10-13T17:12:30;93997.13;;;24.76;39.55
21828;BME280;11076;47.942;11.804;2023-10-13T17:17:33;93995.41;;;24.97;39.17
21828;BME280;11076;47.942;11.804;2023-10-13T17:22:36;94004.53;;;24.93;39.36
21828;BME280;11076;47.942;11.804;2023-10-13T17:27:42;94003.19;;;24.64;40.12
21828;BME280;11076;47.942;11.804;2023-10-13T17:32:45;94002.59;;;24.45;40.17
21828;BME280;11076;47.942;11.804;2023-10-13T17:37:48;94003.56;;;24.89;39.69
21828;BME280;11076;47.942;11.804;2023-10-13T17:42:51;94003.19;;;24.64;40.05
21828;BME280;11076;47.942;11.804;2023-10-13T17:47:54;94000.59;;;24.59;39.94
21828;BME280;11076;47.942;11.804;2023-10-13T17:52:58;93999.78;;;24.27;40.48
21828;BME280;11076;47.942;11.804;2023-10-13T17:58:03;94011.34;;;23.93;41.36
21828;BME280;11076;47.942;11.804;2023-10-13T18:03:08;94010.03;;;23.68;41.73
21828;BME280;11076;47.942;11.804;2023-10-13T18:08:10;94004.22;;;23.83;41.90
21828;BME280;11076;47.942;11.804;2023-10-13T18:13:12;94010.03;;;23.68;42.02
21828;BME280;11076;47.942;11.804;2023-10-13T18:18:15;94001.59;;;24.00;41.85
21828;BME280;11076;47.942;11.804;2023-10-13T18:23:18;94017.44;;;23.90;41.53
21828;BME280;11076;47.942;11.804;2023-10-13T18:28:21;94010.66;;;24.10;41.50
21828;BME280;11076;47.942;11.804;2023-10-13T18:33:23;94010.00;;;23.81;41.33
21828;BME280;11076;47.942;11.804;2023-10-13T18:38:26;94016.22;;;24.05;40.77
21828;BME280;11076;47.942;11.804;2023-10-13T18:43:36;94017.91;;;24.14;40.52
21828;BME280;11076;47.942;11.804;2023-10-13T18:48:41;94014.25;;;23.74;40.82
21828;BME280;11076;47.942;11.804;2023-10-13T18:53:47;94016.59;;;23.44;40.78
21828;BME280;11076;47.942;11.804;2023-10-13T18:58:51;94013.47;;;23.14;41.41
21828;BME280;11076;47.942;11.804;2023-10-13T19:03:59;94009.34;;;23.03;41.47
21828;BME280;11076;47.942;11.804;2023-10-13T19:09:02;94011.84;;;22.86;41.59
21828;BME280;11076;47.942;11.804;2023-10-13T19:14:07;94010.19;;;23.26;40.96
21828;BME280;11076;47.942;11.804;2023-10-13T19:19:15;94016.22;;;22.87;41.37
21828;BME280;11076;47.942;11.804;2023-10-13T19:24:18;94024.19;;;22.55;41.69
21828;BME280;11076;47.942;11.804;2023-10-13T19:29:24;94012.06;;;22.75;41.48
21828;BME280;11076;47.942;11.804;2023-10-13T19:34:26;94011.56;;;22.87;40.63
21828;BME280;11076;47.942;11.804;2023-10-13T19:39:29;94010.59;;;23.19;39.75
21828;BME280;11076;47.942;11.804;2023-10-13T19:44:33;94014.88;;;22.98;40.26
21828;BME280;11076;47.942;11.804;2023-10-13T19:49:36;94006.94;;;23.83;38.18
21828;BME280;11076;47.942;11.804;2023-10-13T19:54:39;94006.59;;;24.07;37.68
21828;BME280;11076;47.942;11.804;2023-10-13T19:59:42;94003.84;;;23.98;37.25
21828;BME280;11076;47.942;11.804;2023-10-13T20:04:44;93996.66;;;23.80;37.49
21828;BME280;11076;47.942;11.804;2023-10-13T20:09:47;93992.03;;;23.89;37.25
21828;BME280;11076;47.942;11.804;2023-10-13T20:14:49;93993.84;;;23.71;37.01
21828;BME280;11076;47.942;11.804;2023-10-13T20:19:52;93990.81;;;23.73;37.04
21828;BME280;11076;47.942;11.804;2023-10-13T20:24:56;93982.53;;;23.78;37.23
21828;BME280;11076;47.942;11.804;2023-10-13T20:29:58;93984.81;;;23.62;37.09
21828;BME280;11076;47.942;11.804;2023-10-13T20:35:01;93987.59;;;23.12;37.62
21828;BME280;11076;47.942;11.804;2023-10-13T20:40:05;93988.44;;;23.12;37.79
21828;BME280;11076;47.942;11.804;2023-10-13T20:45:20;93989.31;;;23.44;37.18
21828;BME280;11076;47.942;11.804;2023-10-13T20:50:26;93981.50;;;23.74;36.44
21828;BME280;11076;47.942;11.804;2023-10-13T20:55:28;93979.03;;;23.41;36.88
21828;BME280;11076;47.942;11.804;2023-10-13T21:00:31;93978.47;;;23.30;36.85
21828;BME280;11076;47.942;11.804;2023-10-13T21:05:37;93972.78;;;23.40;36.59
21828;BME280;11076;47.942;11.804;2023-10-13T21:10:40;93973.38;;;23.37;36.34
21828;BME280;11076;47.942;11.804;2023-10-13T21:15:42;93969.84;;;23.14;36.78
21828;BME280;11076;47.942;11.804;2023-10-13T21:20:45;93964.78;;;22.94;37.08
21828;BME280;11076;47.942;11.804;2023-10-13T21:25:47;93963.69;;;22.95;37.05
21828;BME280;11076;47.942;11.804;2023-10-13T21:30:50;93957.84;;;22.88;37.22
21828;BME280;11076;47.942;11.804;2023-10-13T21:35:52;93954.97;;;22.84;37.19
21828;BME280;11076;47.942;11.804;2023-10-13T21:40:55;93954.09;;;22.33;37.64
21828;BME280;11076;47.942;11.804;2023-10-13T21:46:04;93955.47;;;22.72;37.23
21828;BME280;11076;47.942;11.804;2023-10-13T21:51:10;93952.38;;;23.01;36.67
21828;BME280;11076;47.942;11.804;2023-10-13T21:56:18;93951.88;;;22.99;36.46
21828;BME280;11076;47.942;11.804;2023-10-13T22:01:21;93957.00;;;22.51;37.30
21828;BME280;11076;47.942;11.804;2023-10-13T22:06:23;93944.63;;;22.44;37.80
21828;BME280;11076;47.942;11.804;2023-10-13T22:11:28;93943.28;;;22.28;38.01
21828;BME280;11076;47.942;11.804;2023-10-13T22:16:31;93938.25;;;22.35;37.72
21828;BME280;11076;47.942;11.804;2023-10-13T22:21:33;93930.78;;;22.41;37.58
21828;BME280;11076;47.942;11.804;2023-10-13T22:26:36;93936.03;;;22.37;37.57
21828;BME280;11076;47.942;11.804;2023-10-13T22:31:39;93914.25;;;22.10;37.97
21828;BME280;11076;47.942;11.804;2023-10-13T22:36:43;93912.44;;;21.91;38.36
21828;BME280;11076;47.942;11.804;2023-10-13T22:41:53;93911.44;;;22.15;37.98
21828;BME280;11076;47.942;11.804;2023-10-13T22:46:55;93909.00;;;21.99;37.95
21828;BME280;11076;47.942;11.804;2023-10-13T22:57:00;93913.91;;;21.70;38.43
21828;BME280;11076;47.942;11.804;2023-10-13T23:02:02;93924.09;;;21.78;38.46
21828;BME280;11076;47.942;11.804;2023-10-13T23:07:05;93927.88;;;21.49;39.35
21828;BME280;11076;47.942;11.804;2023-10-13T23:12:19;93925.31;;;21.39;39.73
21828;BME280;11076;47.942;11.804;2023-10-13T23:17:22;93919.94;;;21.53;39.32
21828;BME280;11076;47.942;11.804;2023-10-13T23:22:27;93918.06;;;21.81;38.61
21828;BME280;11076;47.942;11.804;2023-10-13T23:27:29;93922.69;;;21.94;38.47
21828;BME280;11076;47.942;11.804;2023-10-13T23:32:32;93914.69;;;22.31;37.72
21828;BME280;11076;47.942;11.804;2023-10-13T23:37:34;93918.09;;;22.50;37.60
21828;BME280;11076;47.942;11.804;2023-10-13T23:42:45;93931.25;;;22.71;37.09
21828;BME280;11076;47.942;11.804;2023-10-13T23:48:07;93925.41;;;22.63;37.31
21828;BME280;11076;47.942;11.804;2023-10-13T23:53:13;93928.53;;;22.71;37.08
21828;BME280;11076;47.942;11.804;2023-10-13T23:58:22;93929.94;;;22.82;36.40
